sensor_id;sensor_type;location;lat;lon;timestamp;pressure;altitude;pressure_sealevel;temperature;humidity
40460;BME280;26164;51.138;16.952;2023-02-17T17:22:51;76174.22;;;-146.39;100.00
40460;BME280;26164;51.138;16.952;2023-02-17T17:28:20;76094.59;;;-146.39;100.00
40460;BME280;26164;51.138;16.952;2023-02-17T17:30:56;76057.84;;;-146.39;100.00
40460;BME280;26164;51.138;16.952;2023-02-17T17:33:38;76006.81;;;-146.39;100.00
40460;BME280;26164;51.138;16.952;2023-02-17T17:36:43;75929.25;;;-146.39;100.00
40460;BME280;26164;51.138;16.952;2023-02-17T17:39:30;75839.44;;;-146.39;100.00
40460;BME280;26164;51.138;16.952;2023-02-17T17:42:10;75796.59;;;-146.39;100.00
40460;BME280;26164;51.138;16.952;2023-02-17T17:44:52;75800.66;;;-146.39;100.00
40460;BME280;26164;51.138;16.952;2023-02-17T17:47:59;75796.59;;;-146.39;100.00
40460;BME280;26164;51.138;16.952;2023-02-17T17:50:50;75755.75;;;-146.39;100.00
40460;BME280;26164;51.138;16.952;2023-02-17T17:53:24;75747.59;;;-146.39;100.00
40460;BME280;26164;51.138;16.952;2023-02-17T17:55:58;75745.56;;;-146.39;100.00
40460;BME280;26164;51.138;16.952;2023-02-17T17:58:58;75751.69;;;-146.39;100.00
40460;BME280;26164;51.138;16.952;2023-02-17T18:02:06;75731.28;;;-146.39;100.00
40460;BME280;26164;51.138;16.952;2023-02-17T18:04:54;75747.59;;;-146.39;100.00
40460;BME280;26164;51.138;16.952;2023-02-17T18:07:49;75727.19;;;-146.39;100.00
40460;BME280;26164;51.138;16.952;2023-02-17T18:10:26;75721.06;;;-146.39;100.00
40460;BME280;26164;51.138;16.952;2023-02-17T18:13:29;75735.34;;;-146.39;100.00
40460;BME280;26164;51.138;16.952;2023-02-17T18:16:01;75721.06;;;-146.39;100.00
40460;BME280;26164;51.138;16.952;2023-02-17T18:18:32;75727.19;;;-146.39;100.00
40460;BME280;26164;51.138;16.952;2023-02-17T18:21:13;75727.19;;;-146.39;100.00
40460;BME280;26164;51.138;16.952;2023-02-17T18:23:41;75719.03;;;-146.39;100.00
40460;BME280;26164;51.138;16.952;2023-02-17T18:26:07;75706.78;;;-146.39;100.00
40460;BME280;26164;51.138;16.952;2023-02-17T18:28:38;75698.63;;;-146.39;100.00
40460;BME280;26164;51.138;16.952;2023-02-17T18:31:12;75698.63;;;-146.39;100.00
40460;BME280;26164;51.138;16.952;2023-02-17T18:33:45;75690.44;;;-146.39;100.00
40460;BME280;26164;51.138;16.952;2023-02-17T18:36:18;75710.88;;;-146.39;100.00
40460;BME280;26164;51.138;16.952;2023-02-17T18:38:53;75721.06;;;-146.39;100.00
40460;BME280;26164;51.138;16.952;2023-02-17T18:41:23;75682.28;;;-146.39;100.00
40460;BME280;26164;51.138;16.952;2023-02-17T18:43:56;75702.69;;;-146.39;100.00
40460;BME280;26164;51.138;16.952;2023-02-17T18:46:26;75692.50;;;-146.39;100.00
40460;BME280;26164;51.138;16.952;2023-02-17T18:48:55;75698.63;;;-146.39;100.00
40460;BME280;26164;51.138;16.952;2023-02-17T18:51:22;75680.25;;;-146.39;100.00
40460;BME280;26164;51.138;16.952;2023-02-17T18:53:59;75684.31;;;-146.39;100.00
40460;BME280;26164;51.138;16.952;2023-02-17T18:56:42;75682.28;;;-146.39;100.00
40460;BME280;26164;51.138;16.952;2023-02-17T18:59:14;75674.13;;;-146.39;100.00
40460;BME280;26164;51.138;16.952;2023-02-17T19:02:05;75653.72;;;-146.39;100.00
40460;BME280;26164;51.138;16.952;2023-02-17T19:04:33;75678.19;;;-146.39;100.00
40460;BME280;26164;51.138;16.952;2023-02-17T19:06:59;75678.19;;;-146.39;100.00
40460;BME280;26164;51.138;16.952;2023-02-17T19:09:40;75661.88;;;-146.39;100.00
40460;BME280;26164;51.138;16.952;2023-02-17T19:12:10;75690.44;;;-146.39;100.00
40460;BME280;26164;51.138;16.952;2023-02-17T19:14:42;75661.88;;;-146.39;100.00
40460;BME280;26164;51.138;16.952;2023-02-17T19:17:10;75696.56;;;-146.39;100.00
40460;BME280;26164;51.138;16.952;2023-02-17T19:19:41;75670.03;;;-146.39;100.00
40460;BME280;26164;51.138;16.952;2023-02-17T19:22:09;75717.00;;;-146.39;100.00
40460;BME280;26164;51.138;16.952;2023-02-17T19:24:56;75729.22;;;-146.39;100.00
40460;BME280;26164;51.138;16.952;2023-02-17T19:27:24;75747.59;;;-146.39;100.00
40460;BME280;26164;51.138;16.952;2023-02-17T19:30:07;75751.69;;;-146.39;100.00
40460;BME280;26164;51.138;16.952;2023-02-17T19:32:38;75780.25;;;-146.39;100.00
40460;BME280;26164;51.138;16.952;2023-02-17T19:35:05;75788.44;;;-146.39;100.00
40460;BME280;26164;51.138;16.952;2023-02-17T19:37:33;75763.94;;;-146.39;100.00
40460;BME280;26164;51.138;16.952;2023-02-17T19:40:04;75792.50;;;-146.39;100.00
40460;BME280;26164;51.138;16.952;2023-02-17T19:42:33;75796.59;;;-146.39;100.00
40460;BME280;26164;51.138;16.952;2023-02-17T19:45:01;75894.56;;;-146.39;100.00
40460;BME280;26164;51.138;16.952;2023-02-17T19:47:30;75910.88;;;-146.39;100.00
40460;BME280;26164;51.138;16.952;2023-02-17T19:49:59;75904.78;;;-146.39;100.00
40460;BME280;26164;51.138;16.952;2023-02-17T19:52:36;75902.72;;;-146.39;100.00
40460;BME280;26164;51.138;16.952;2023-02-17T19:55:03;75896.59;;;-146.39;100.00
40460;BME280;26164;51.138;16.952;2023-02-17T19:57:33;75902.72;;;-146.39;100.00
40460;BME280;26164;51.138;16.952;2023-02-17T20:00:00;75908.84;;;-146.39;100.00
40460;BME280;26164;51.138;16.952;2023-02-17T20:02:30;75914.97;;;-146.39;100.00
40460;BME280;26164;51.138;16.952;2023-02-17T20:05:07;75929.25;;;-146.39;100.00
40460;BME280;26164;51.138;16.952;2023-02-17T20:07:38;75919.06;;;-146.39;100.00
40460;BME280;26164;51.138;16.952;2023-02-17T20:10:19;75972.13;;;-146.39;100.00
40460;BME280;26164;51.138;16.952;2023-02-17T20:12:48;76012.94;;;-146.39;100.00
40460;BME280;26164;51.138;16.952;2023-02-17T20:15:14;76043.56;;;-146.39;100.00
40460;BME280;26164;51.138;16.952;2023-02-17T20:17:50;76078.28;;;-146.39;100.00
40460;BME280;26164;51.138;16.952;2023-02-17T20:20:19;76047.66;;;-146.39;100.00
40460;BME280;26164;51.138;16.952;2023-02-17T20:23:03;76072.16;;;-146.39;100.00
40460;BME280;26164;51.138;16.952;2023-02-17T20:25:50;76068.06;;;-146.39;100.00
40460;BME280;26164;51.138;16.952;2023-02-17T20:28:26;76045.59;;;-146.39;100.00
40460;BME280;26164;51.138;16.952;2023-02-17T20:31:05;76021.13;;;-146.39;100.00
40460;BME280;26164;51.138;16.952;2023-02-17T20:33:49;76057.84;;;-146.39;100.00
40460;BME280;26164;51.138;16.952;2023-02-17T20:36:40;76025.19;;;-146.39;100.00
40460;BME280;26164;51.138;16.952;2023-02-17T20:39:18;76029.28;;;-146.39;100.00
40460;BME280;26164;51.138;16.952;2023-02-17T20:42:02;76049.69;;;-146.39;100.00
40460;BME280;26164;51.138;16.952;2023-02-17T20:44:39;76049.69;;;-146.39;100.00
40460;BME280;26164;51.138;16.952;2023-02-17T20:47:20;76035.41;;;-146.39;100.00
40460;BME280;26164;51.138;16.952;2023-02-17T20:50:29;76017.03;;;-146.39;100.00
40460;BME280;26164;51.138;16.952;2023-02-17T20:53:10;76029.28;;;-146.39;100.00
40460;BME280;26164;51.138;16.952;2023-02-17T20:55:38;76015.00;;;-146.39;100.00
40460;BME280;26164;51.138;16.952;2023-02-17T20:58:13;76017.03;;;-146.39;100.00
40460;BME280;26164;51.138;16.952;2023-02-17T21:00:49;76029.28;;;-146.39;100.00
40460;BME280;26164;51.138;16.952;2023-02-17T21:03:30;76029.28;;;-146.39;100.00
40460;BME280;26164;51.138;16.952;2023-02-17T21:06:15;76029.28;;;-146.39;100.00
40460;BME280;26164;51.138;16.952;2023-02-17T21:09:16;76053.78;;;-146.39;100.00
40460;BME280;26164;51.138;16.952;2023-02-17T21:11:49;76023.16;;;-146.39;100.00
40460;BME280;26164;51.138;16.952;2023-02-17T21:14:16;76029.28;;;-146.39;100.00
40460;BME280;26164;51.138;16.952;2023-02-17T21:17:04;76043.56;;;-146.39;100.00
40460;BME280;26164;51.138;16.952;2023-02-17T21:19:47;76047.66;;;-146.39;100.00
40460;BME280;26164;51.138;16.952;2023-02-17T21:22:28;76066.03;;;-146.39;100.00
40460;BME280;26164;51.138;16.952;2023-02-17T21:25:02;76070.09;;;-146.39;100.00
40460;BME280;26164;51.138;16.952;2023-02-17T21:27:48;76078.28;;;-146.39;100.00
40460;BME280;26164;51.138;16.952;2023-02-17T21:30:21;76072.16;;;-146.39;100.00
40460;BME280;26164;51.138;16.952;2023-02-17T21:33:12;76066.03;;;-146.39;100.00
40460;BME280;26164;51.138;16.952;2023-02-17T21:36:06;76057.84;;;-146.39;100.00
40460;BME280;26164;51.138;16.952;2023-02-17T21:39:17;76041.53;;;-146.39;100.00
40460;BME280;26164;51.138;16.952;2023-02-17T21:42:05;76041.53;;;-146.39;100.00
40460;BME280;26164;51.138;16.952;2023-02-17T21:44:50;76049.69;;;-146.39;100.00
40460;BME280;26164;51.138;16.952;2023-02-17T21:47:20;76051.72;;;-146.39;100.00
40460;BME280;26164;51.138;16.952;2023-02-17T21:50:13;76045.59;;;-146.39;100.00
40460;BME280;26164;51.138;16.952;2023-02-17T21:52:54;76061.94;;;-146.39;100.00
40460;BME280;26164;51.138;16.952;2023-02-17T21:55:23;76049.69;;;-146.39;100.00
40460;BME280;26164;51.138;16.952;2023-02-17T21:57:53;76039.50;;;-146.39;100.00
40460;BME280;26164;51.138;16.952;2023-02-17T22:00:23;76049.69;;;-146.39;100.00
40460;BME280;26164;51.138;16.952;2023-02-17T22:02:52;76078.28;;;-146.39;100.00
40460;BME280;26164;51.138;16.952;2023-02-17T22:05:21;76106.84;;;-146.39;100.00
40460;BME280;26164;51.138;16.952;2023-02-17T22:07:49;76155.84;;;-146.39;100.00
40460;BME280;26164;51.138;16.952;2023-02-17T22:10:16;76213.00;;;-146.39;100.00
40460;BME280;26164;51.138;16.952;2023-02-17T22:12:43;76306.91;;;-146.39;100.00
40460;BME280;26164;51.138;16.952;2023-02-17T22:15:11;76355.88;;;-146.39;100.00
40460;BME280;26164;51.138;16.952;2023-02-17T22:17:51;76384.47;;;-146.39;100.00
40460;BME280;26164;51.138;16.952;2023-02-17T22:20:22;76408.97;;;-146.39;100.00
40460;BME280;26164;51.138;16.952;2023-02-17T22:23:08;76406.94;;;-146.39;100.00
40460;BME280;26164;51.138;16.952;2023-02-17T22:25:40;76413.06;;;-146.39;100.00
40460;BME280;26164;51.138;16.952;2023-02-17T22:28:09;76417.13;;;-146.39;100.00
40460;BME280;26164;51.138;16.952;2023-02-17T22:30:52;76370.19;;;-146.39;100.00
40460;BME280;26164;51.138;16.952;2023-02-17T22:33:27;76400.81;;;-146.39;100.00
40460;BME280;26164;51.138;16.952;2023-02-17T22:36:01;76372.22;;;-146.39;100.00
40460;BME280;26164;51.138;16.952;2023-02-17T22:38:29;76392.63;;;-146.39;100.00
40460;BME280;26164;51.138;16.952;2023-02-17T22:41:08;76366.09;;;-146.39;100.00
40460;BME280;26164;51.138;16.952;2023-02-17T22:43:59;76380.38;;;-146.39;100.00
40460;BME280;26164;51.138;16.952;2023-02-17T22:46:39;76380.38;;;-146.39;100.00
40460;BME280;26164;51.138;16.952;2023-02-17T22:49:08;76364.06;;;-146.39;100.00
40460;BME280;26164;51.138;16.952;2023-02-17T22:51:57;76343.63;;;-146.39;100.00
40460;BME280;26164;51.138;16.952;2023-02-17T22:54:55;76335.47;;;-146.39;100.00
40460;BME280;26164;51.138;16.952;2023-02-17T22:57:52;76343.63;;;-146.39;100.00
40460;BME280;26164;51.138;16.952;2023-02-17T23:00:33;76355.88;;;-146.39;100.00
40460;BME280;26164;51.138;16.952;2023-02-17T23:03:38;76353.84;;;-146.39;100.00
40460;BME280;26164;51.138;16.952;2023-02-17T23:06:13;76343.63;;;-146.39;100.00
40460;BME280;26164;51.138;16.952;2023-02-17T23:08:42;76351.81;;;-146.39;100.00
40460;BME280;26164;51.138;16.952;2023-02-17T23:11:12;76347.72;;;-146.39;100.00
40460;BME280;26164;51.138;16.952;2023-02-17T23:13:40;76345.69;;;-146.39;100.00
40460;BME280;26164;51.138;16.952;2023-02-17T23:16:07;76323.22;;;-146.39;100.00
40460;BME280;26164;51.138;16.952;2023-02-17T23:18:36;76351.81;;;-146.39;100.00
40460;BME280;26164;51.138;16.952;2023-02-17T23:21:11;76374.25;;;-146.39;99.96
40460;BME280;26164;51.138;16.952;2023-02-17T23:23:38;76339.56;;;-146.39;99.35
40460;BME280;26164;51.138;16.952;2023-02-17T23:26:06;76355.88;;;-146.39;99.94
40460;BME280;26164;51.138;16.952;2023-02-17T23:28:32;76364.06;;;-146.39;100.00
40460;BME280;26164;51.138;16.952;2023-02-17T23:30:58;76357.94;;;-146.39;100.00
40460;BME280;26164;51.138;16.952;2023-02-17T23:33:24;76388.56;;;-146.39;100.00
40460;BME280;26164;51.138;16.952;2023-02-17T23:35:51;76388.56;;;-146.39;100.00
40460;BME280;26164;51.138;16.952;2023-02-17T23:38:19;76423.25;;;-146.39;100.00
40460;BME280;26164;51.138;16.952;2023-02-17T23:40:49;76429.38;;;-146.39;100.00
40460;BME280;26164;51.138;16.952;2023-02-17T23:43:16;76449.78;;;-146.39;100.00
40460;BME280;26164;51.138;16.952;2023-02-17T23:45:44;76437.53;;;-146.39;100.00
40460;BME280;26164;51.138;16.952;2023-02-17T23:48:11;76433.47;;;-146.39;100.00
40460;BME280;26164;51.138;16.952;2023-02-17T23:50:37;76364.06;;;-146.39;100.00
40460;BME280;26164;51.138;16.952;2023-02-17T23:53:08;76404.88;;;-146.39;100.00
40460;BME280;26164;51.138;16.952;2023-02-17T23:56:28;76419.19;;;-146.39;100.00
40460;BME280;26164;51.138;16.952;2023-02-17T23:58:54;76400.81;;;-146.39;100.00
